sensor_id;sensor_type;location;lat;lon;timestamp;P1;durP1;ratioP1;P2;durP2;ratioP2
55663;SDS011;41540;57.880;12.164;2023-08-07T00:00:30;6.35;;;1.67;;
55663;SDS011;41540;57.880;12.164;2023-08-07T00:10:31;1.15;;;1.05;;
55663;SDS011;41540;57.880;12.164;2023-08-07T00:20:31;1.27;;;1.20;;
55663;SDS011;41540;57.880;12.164;2023-08-07T00:30:32;1.50;;;1.35;;
55663;SDS011;41540;57.880;12.164;2023-08-07T00:40:35;1.80;;;1.55;;
55663;SDS011;41540;57.880;12.164;2023-08-07T00:50:40;1.00;;;1.00;;
55663;SDS011;41540;57.880;12.164;2023-08-07T01:00:42;2.10;;;1.47;;
55663;SDS011;41540;57.880;12.164;2023-08-07T01:20:52;1.95;;;1.02;;
55663;SDS011;41540;57.880;12.164;2023-08-07T01:30:54;1.20;;;1.10;;
55663;SDS011;41540;57.880;12.164;2023-08-07T01:40:57;2.45;;;1.08;;
55663;SDS011;41540;57.880;12.164;2023-08-07T01:50:58;1.10;;;1.10;;
55663;SDS011;41540;57.880;12.164;2023-08-07T02:00:59;0.93;;;0.85;;
55663;SDS011;41540;57.880;12.164;2023-08-07T02:10:59;2.40;;;1.00;;
55663;SDS011;41540;57.880;12.164;2023-08-07T02:21:01;1.40;;;0.70;;
55663;SDS011;41540;57.880;12.164;2023-08-07T02:31:02;2.45;;;0.70;;
55663;SDS011;41540;57.880;12.164;2023-08-07T02:41:02;0.90;;;0.88;;
55663;SDS011;41540;57.880;12.164;2023-08-07T02:51:03;0.80;;;0.80;;
55663;SDS011;41540;57.880;12.164;2023-08-07T03:01:04;1.05;;;0.93;;
55663;SDS011;41540;57.880;12.164;2023-08-07T03:11:06;0.88;;;0.88;;
55663;SDS011;41540;57.880;12.164;2023-08-07T03:21:06;4.85;;;0.73;;
55663;SDS011;41540;57.880;12.164;2023-08-07T03:31:06;1.50;;;1.13;;
55663;SDS011;41540;57.880;12.164;2023-08-07T03:41:07;1.17;;;0.80;;
55663;SDS011;41540;57.880;12.164;2023-08-07T03:51:07;0.70;;;0.70;;
55663;SDS011;41540;57.880;12.164;2023-08-07T04:01:08;0.65;;;0.60;;
55663;SDS011;41540;57.880;12.164;2023-08-07T04:11:08;3.17;;;0.70;;
55663;SDS011;41540;57.880;12.164;2023-08-07T04:21:09;0.60;;;0.60;;
55663;SDS011;41540;57.880;12.164;2023-08-07T04:31:10;0.50;;;0.50;;
55663;SDS011;41540;57.880;12.164;2023-08-07T04:41:10;1.67;;;0.47;;
55663;SDS011;41540;57.880;12.164;2023-08-07T04:51:11;0.70;;;0.70;;
55663;SDS011;41540;57.880;12.164;2023-08-07T05:01:12;0.73;;;0.60;;
55663;SDS011;41540;57.880;12.164;2023-08-07T05:11:12;8.00;;;0.95;;
55663;SDS011;41540;57.880;12.164;2023-08-07T05:21:13;0.40;;;0.40;;
55663;SDS011;41540;57.880;12.164;2023-08-07T05:31:13;0.57;;;0.57;;
55663;SDS011;41540;57.880;12.164;2023-08-07T05:41:13;0.40;;;0.40;;
55663;SDS011;41540;57.880;12.164;2023-08-07T05:51:14;2.58;;;0.57;;
55663;SDS011;41540;57.880;12.164;2023-08-07T06:01:14;0.68;;;0.50;;
55663;SDS011;41540;57.880;12.164;2023-08-07T06:11:17;1.53;;;0.97;;
55663;SDS011;41540;57.880;12.164;2023-08-07T06:21:17;0.88;;;0.60;;
55663;SDS011;41540;57.880;12.164;2023-08-07T06:31:18;0.60;;;0.60;;
55663;SDS011;41540;57.880;12.164;2023-08-07T06:41:18;0.32;;;0.32;;
55663;SDS011;41540;57.880;12.164;2023-08-07T06:51:18;0.70;;;0.70;;
55663;SDS011;41540;57.880;12.164;2023-08-07T07:01:19;0.50;;;0.50;;
55663;SDS011;41540;57.880;12.164;2023-08-07T07:11:20;1.30;;;0.95;;
55663;SDS011;41540;57.880;12.164;2023-08-07T07:21:22;2.63;;;0.90;;
55663;SDS011;41540;57.880;12.164;2023-08-07T07:31:22;0.68;;;0.68;;
55663;SDS011;41540;57.880;12.164;2023-08-07T07:41:23;0.77;;;0.77;;
55663;SDS011;41540;57.880;12.164;2023-08-07T07:51:24;1.67;;;0.90;;
55663;SDS011;41540;57.880;12.164;2023-08-07T08:01:24;1.35;;;0.90;;
55663;SDS011;41540;57.880;12.164;2023-08-07T08:11:25;1.50;;;1.25;;
55663;SDS011;41540;57.880;12.164;2023-08-07T08:21:25;43.05;;;6.47;;
55663;SDS011;41540;57.880;12.164;2023-08-07T08:31:26;1.38;;;1.27;;
55663;SDS011;41540;57.880;12.164;2023-08-07T08:41:26;1.77;;;1.67;;
55663;SDS011;41540;57.880;12.164;2023-08-07T08:51:27;2.17;;;1.97;;
55663;SDS011;41540;57.880;12.164;2023-08-07T09:01:28;3.50;;;2.67;;
55663;SDS011;41540;57.880;12.164;2023-08-07T09:11:30;5.93;;;3.37;;
55663;SDS011;41540;57.880;12.164;2023-08-07T09:21:31;2.83;;;2.63;;
55663;SDS011;41540;57.880;12.164;2023-08-07T09:31:31;3.08;;;2.50;;
55663;SDS011;41540;57.880;12.164;2023-08-07T09:41:32;6.60;;;3.13;;
55663;SDS011;41540;57.880;12.164;2023-08-07T09:51:52;3.60;;;3.07;;
55663;SDS011;41540;57.880;12.164;2023-08-07T10:01:52;5.20;;;3.42;;
55663;SDS011;41540;57.880;12.164;2023-08-07T10:11:54;9.40;;;4.27;;
55663;SDS011;41540;57.880;12.164;2023-08-07T10:21:55;8.17;;;3.70;;
55663;SDS011;41540;57.880;12.164;2023-08-07T10:31:56;22.17;;;4.85;;
55663;SDS011;41540;57.880;12.164;2023-08-07T10:41:58;12.95;;;3.97;;
55663;SDS011;41540;57.880;12.164;2023-08-07T10:52:01;43.28;;;7.72;;
55663;SDS011;41540;57.880;12.164;2023-08-07T11:02:26;12.70;;;4.85;;
55663;SDS011;41540;57.880;12.164;2023-08-07T11:12:29;17.55;;;5.22;;
55663;SDS011;41540;57.880;12.164;2023-08-07T11:22:31;10.13;;;5.37;;
55663;SDS011;41540;57.880;12.164;2023-08-07T11:32:31;14.50;;;5.50;;
55663;SDS011;41540;57.880;12.164;2023-08-07T11:42:32;20.97;;;4.53;;
55663;SDS011;41540;57.880;12.164;2023-08-07T11:52:32;15.85;;;6.30;;
55663;SDS011;41540;57.880;12.164;2023-08-07T12:02:34;8.15;;;6.65;;
55663;SDS011;41540;57.880;12.164;2023-08-07T12:12:36;6.00;;;5.47;;
55663;SDS011;41540;57.880;12.164;2023-08-07T12:32:38;7.47;;;6.78;;
55663;SDS011;41540;57.880;12.164;2023-08-07T12:42:38;8.95;;;8.15;;
55663;SDS011;41540;57.880;12.164;2023-08-07T12:52:38;8.25;;;7.55;;
55663;SDS011;41540;57.880;12.164;2023-08-07T13:02:40;10.23;;;8.32;;
55663;SDS011;41540;57.880;12.164;2023-08-07T13:12:42;13.07;;;8.15;;
55663;SDS011;41540;57.880;12.164;2023-08-07T13:32:45;4.13;;;3.80;;
55663;SDS011;41540;57.880;12.164;2023-08-07T13:42:46;4.43;;;4.03;;
55663;SDS011;41540;57.880;12.164;2023-08-07T13:52:46;2.13;;;1.50;;
55663;SDS011;41540;57.880;12.164;2023-08-07T14:02:47;1.58;;;1.40;;
55663;SDS011;41540;57.880;12.164;2023-08-07T14:12:47;2.92;;;0.77;;
55663;SDS011;41540;57.880;12.164;2023-08-07T14:22:47;1.42;;;0.57;;
55663;SDS011;41540;57.880;12.164;2023-08-07T14:32:48;0.25;;;0.25;;
55663;SDS011;41540;57.880;12.164;2023-08-07T14:42:49;0.57;;;0.57;;
55663;SDS011;41540;57.880;12.164;2023-08-07T14:52:49;0.57;;;0.43;;
55663;SDS011;41540;57.880;12.164;2023-08-07T15:02:50;1.30;;;0.60;;
55663;SDS011;41540;57.880;12.164;2023-08-07T15:12:50;0.30;;;0.30;;
55663;SDS011;41540;57.880;12.164;2023-08-07T15:22:50;0.45;;;0.40;;
55663;SDS011;41540;57.880;12.164;2023-08-07T15:32:51;2.72;;;0.60;;
55663;SDS011;41540;57.880;12.164;2023-08-07T15:42:51;0.57;;;0.57;;
55663;SDS011;41540;57.880;12.164;2023-08-07T15:52:52;0.50;;;0.50;;
55663;SDS011;41540;57.880;12.164;2023-08-07T16:02:52;0.52;;;0.50;;
55663;SDS011;41540;57.880;12.164;2023-08-07T16:12:53;0.50;;;0.50;;
55663;SDS011;41540;57.880;12.164;2023-08-07T16:22:55;2.53;;;0.90;;
55663;SDS011;41540;57.880;12.164;2023-08-07T16:32:55;2.83;;;0.77;;
55663;SDS011;41540;57.880;12.164;2023-08-07T16:42:56;2.03;;;0.98;;
55663;SDS011;41540;57.880;12.164;2023-08-07T16:52:56;1.35;;;0.70;;
55663;SDS011;41540;57.880;12.164;2023-08-07T17:02:57;3.90;;;1.20;;
55663;SDS011;41540;57.880;12.164;2023-08-07T17:12:58;1.75;;;0.50;;
55663;SDS011;41540;57.880;12.164;2023-08-07T17:22:58;2.17;;;0.90;;
55663;SDS011;41540;57.880;12.164;2023-08-07T17:32:59;4.80;;;1.38;;
55663;SDS011;41540;57.880;12.164;2023-08-07T17:42:59;3.40;;;1.60;;
55663;SDS011;41540;57.880;12.164;2023-08-07T17:53:00;4.22;;;1.67;;
55663;SDS011;41540;57.880;12.164;2023-08-07T18:03:00;5.10;;;1.67;;
55663;SDS011;41540;57.880;12.164;2023-08-07T18:13:01;4.45;;;1.17;;
55663;SDS011;41540;57.880;12.164;2023-08-07T18:23:01;3.10;;;0.98;;
55663;SDS011;41540;57.880;12.164;2023-08-07T18:33:02;3.67;;;0.90;;
55663;SDS011;41540;57.880;12.164;2023-08-07T18:43:02;1.75;;;1.02;;
55663;SDS011;41540;57.880;12.164;2023-08-07T18:53:03;3.13;;;0.60;;
55663;SDS011;41540;57.880;12.164;2023-08-07T19:03:03;3.35;;;0.60;;
55663;SDS011;41540;57.880;12.164;2023-08-07T19:13:04;1.92;;;0.85;;
55663;SDS011;41540;57.880;12.164;2023-08-07T19:23:04;4.45;;;0.63;;
55663;SDS011;41540;57.880;12.164;2023-08-07T19:33:05;0.52;;;0.52;;
55663;SDS011;41540;57.880;12.164;2023-08-07T19:43:05;0.60;;;0.55;;
55663;SDS011;41540;57.880;12.164;2023-08-07T19:53:06;0.30;;;0.30;;
55663;SDS011;41540;57.880;12.164;2023-08-07T20:03:06;0.55;;;0.40;;
55663;SDS011;41540;57.880;12.164;2023-08-07T20:13:07;0.50;;;0.40;;
55663;SDS011;41540;57.880;12.164;2023-08-07T20:23:08;0.98;;;0.40;;
55663;SDS011;41540;57.880;12.164;2023-08-07T20:33:09;0.63;;;0.50;;
55663;SDS011;41540;57.880;12.164;2023-08-07T20:43:09;0.60;;;0.52;;
55663;SDS011;41540;57.880;12.164;2023-08-07T20:53:10;0.95;;;0.50;;
55663;SDS011;41540;57.880;12.164;2023-08-07T21:03:10;0.65;;;0.65;;
55663;SDS011;41540;57.880;12.164;2023-08-07T21:13:10;0.43;;;0.43;;
55663;SDS011;41540;57.880;12.164;2023-08-07T21:23:11;0.30;;;0.30;;
55663;SDS011;41540;57.880;12.164;2023-08-07T21:33:15;0.55;;;0.50;;
55663;SDS011;41540;57.880;12.164;2023-08-07T21:43:15;0.30;;;0.30;;
55663;SDS011;41540;57.880;12.164;2023-08-07T21:53:16;1.95;;;0.30;;
55663;SDS011;41540;57.880;12.164;2023-08-07T22:03:16;0.30;;;0.30;;
55663;SDS011;41540;57.880;12.164;2023-08-07T22:13:16;0.85;;;0.45;;
55663;SDS011;41540;57.880;12.164;2023-08-07T22:23:17;0.20;;;0.20;;
55663;SDS011;41540;57.880;12.164;2023-08-07T22:33:17;0.40;;;0.40;;
55663;SDS011;41540;57.880;12.164;2023-08-07T22:43:18;0.57;;;0.40;;
55663;SDS011;41540;57.880;12.164;2023-08-07T22:53:18;0.60;;;0.60;;
55663;SDS011;41540;57.880;12.164;2023-08-07T23:03:18;0.43;;;0.35;;
55663;SDS011;41540;57.880;12.164;2023-08-07T23:13:19;4.55;;;1.27;;
55663;SDS011;41540;57.880;12.164;2023-08-07T23:23:19;0.45;;;0.45;;
55663;SDS011;41540;57.880;12.164;2023-08-07T23:33:20;3.65;;;0.90;;
55663;SDS011;41540;57.880;12.164;2023-08-07T23:43:20;1.27;;;0.40;;
55663;SDS011;41540;57.880;12.164;2023-08-07T23:53:20;1.73;;;0.65;;
